Chatham, IL (62629)

10:25 PM CST on February 13, 2016 (GMT -0600)
Ivy Glen Subdivision | | Change Station
CLOSE
Current Station
Personal Weather Station
Location: Chatham, IL
Elevation: 591 ft
Nearby Weather Stations
Active Advisory: Winter Weather Advisory

Elev 591 ft 39.67 °N, 89.67 °W | Updated 18 seconds ago

Overcast
Overcast
18.7 °F
Feels Like 12 °F
N
4.2
Wind Variable Wind from ESE
Gusts 7.8 mph

Today
High -- | Low -- °F
--% Chance of Precip.
Yesterday
High -- | Low -- °F
Precip. -- in
Pressure 30.48 in
Visibility 10.0 miles
Clouds Overcast 8000 ft
Windchill 12 °F
Dew Point 7 °F
Humidity 60%
Rainfall 0.00 in
Snow Depth Not available.
6:54 AM 5:32 PM
Waxing Crescent, 37% visible
METAR KSPI 140352Z 14008KT 10SM OVC080 M07/M15 A3045 RMK AO2 SLP322 T10671150
Pressure 30.48 in
Visibility 10.0 miles
Clouds Overcast 8000 ft
Windchill 12 °F
Dew Point 7 °F
Humidity 60%
Rainfall 0.00 in
Snow Depth Not available.
6:54 AM 5:32 PM
Waxing Crescent, 37% visible
METAR KSPI 140352Z 14008KT 10SM OVC080 M07/M15 A3045 RMK AO2 SLP322 T10671150

10-Day Weather Forecast

Almanac

Astronomy

Feb. 13, 2016 Rise Set
Actual Time
Civil Twilight
Nautical Twilight
Astronomical Twilight
Moon
Length of Visible Light
Length of Day
Tomorrow will be .
, % of the Moon is Illuminated

Today's Extremes

State Highs State Lows

Community

WunderPhotos

Upload Photos

1,892,746 photos uploaded!

WunderBlog® & News

Nearby

Air Quality

  Air Quality AQ Index Pollutant
Not available.

Snow Depth

Station Depth Elevation

Earthquake Activity

City Distance Mag. Time & Date
Minimum magnitude displayed is 2.5.

Coastal Water Temperatures

Place Temperature

Stations

Nearby Weather Stations

Station Location Temp. Windchill Dew Point Humidity Wind Precip. Elev Updated Type
                   

Watches & Warnings

Winter Weather Advisory
Issued: 3:01 PM CST Feb. 13, 2016 – National Weather Service

... Winter Weather Advisory remains in effect from 3 am to 6 PM
CST Sunday...

* timing... snow developing across west central Illinois late this
evening and early overnight... and late tonight over east central
and southeast Illinois.

* Snow accumulations... 2 to 4 inches over most of the area with 4
to 5 inches along and northwest of the Illinois River by sunset
Sunday.

* Wind... southeast at 10 to 20 mph... with gusts of 20 to 25 mph
at times late tonight and Sunday.

* Main impact... hazardous travel conditions due to snow and low
visibilities down to a mile or less at times... as well as
blowing and drifting snow.

Precautionary/preparedness actions...

A Winter Weather Advisory for snow means that periods of snow
will cause primarily travel difficulties. Be prepared for snow
covered roads and limited visibilities... and use caution while
driving.



07